sensor_id;sensor_type;location;lat;lon;timestamp;P1;durP1;ratioP1;P2;durP2;ratioP2
77055;SDS011;67471;44.918;8.614;2023-02-01T00:01:04;39.97;;;21.90;;
77055;SDS011;67471;44.918;8.614;2023-02-01T00:04:09;43.72;;;22.02;;
77055;SDS011;67471;44.918;8.614;2023-02-01T00:07:13;41.63;;;20.75;;
77055;SDS011;67471;44.918;8.614;2023-02-01T00:10:16;40.00;;;20.83;;
77055;SDS011;67471;44.918;8.614;2023-02-01T00:13:20;40.80;;;22.85;;
77055;SDS011;67471;44.918;8.614;2023-02-01T00:16:28;40.85;;;22.20;;
77055;SDS011;67471;44.918;8.614;2023-02-01T00:19:33;47.40;;;22.60;;
77055;SDS011;67471;44.918;8.614;2023-02-01T00:22:37;44.20;;;22.92;;
77055;SDS011;67471;44.918;8.614;2023-02-01T00:25:41;41.45;;;21.83;;
77055;SDS011;67471;44.918;8.614;2023-02-01T00:28:45;48.95;;;23.40;;
77055;SDS011;67471;44.918;8.614;2023-02-01T00:31:50;43.13;;;22.40;;
77055;SDS011;67471;44.918;8.614;2023-02-01T00:34:54;44.20;;;23.08;;
77055;SDS011;67471;44.918;8.614;2023-02-01T00:37:58;40.25;;;21.83;;
77055;SDS011;67471;44.918;8.614;2023-02-01T00:41:03;40.60;;;21.17;;
77055;SDS011;67471;44.918;8.614;2023-02-01T00:44:11;38.73;;;19.77;;
77055;SDS011;67471;44.918;8.614;2023-02-01T00:47:14;43.17;;;21.48;;
77055;SDS011;67471;44.918;8.614;2023-02-01T00:50:18;41.85;;;21.77;;
77055;SDS011;67471;44.918;8.614;2023-02-01T00:53:22;37.35;;;21.25;;
77055;SDS011;67471;44.918;8.614;2023-02-01T00:56:26;38.50;;;21.55;;
77055;SDS011;67471;44.918;8.614;2023-02-01T00:59:33;41.30;;;21.25;;
77055;SDS011;67471;44.918;8.614;2023-02-01T01:02:36;42.28;;;20.45;;
77055;SDS011;67471;44.918;8.614;2023-02-01T01:05:40;45.53;;;19.85;;
77055;SDS011;67471;44.918;8.614;2023-02-01T01:08:44;39.63;;;19.17;;
77055;SDS011;67471;44.918;8.614;2023-02-01T01:11:47;39.05;;;21.25;;
77055;SDS011;67471;44.918;8.614;2023-02-01T01:14:51;40.08;;;19.73;;
77055;SDS011;67471;44.918;8.614;2023-02-01T01:17:56;41.63;;;19.70;;
77055;SDS011;67471;44.918;8.614;2023-02-01T01:21:00;34.05;;;19.40;;
77055;SDS011;67471;44.918;8.614;2023-02-01T01:24:04;42.63;;;21.00;;
77055;SDS011;67471;44.918;8.614;2023-02-01T01:27:08;42.67;;;22.25;;
77055;SDS011;67471;44.918;8.614;2023-02-01T01:30:12;32.03;;;19.75;;
77055;SDS011;67471;44.918;8.614;2023-02-01T01:33:16;37.65;;;19.02;;
77055;SDS011;67471;44.918;8.614;2023-02-01T01:36:20;36.22;;;19.55;;
77055;SDS011;67471;44.918;8.614;2023-02-01T01:39:24;41.13;;;19.73;;
77055;SDS011;67471;44.918;8.614;2023-02-01T01:42:28;39.60;;;20.85;;
77055;SDS011;67471;44.918;8.614;2023-02-01T01:45:33;38.75;;;21.08;;
77055;SDS011;67471;44.918;8.614;2023-02-01T01:48:37;40.47;;;19.58;;
77055;SDS011;67471;44.918;8.614;2023-02-01T01:51:52;44.60;;;20.92;;
77055;SDS011;67471;44.918;8.614;2023-02-01T01:54:59;37.13;;;18.85;;
77055;SDS011;67471;44.918;8.614;2023-02-01T01:58:07;39.10;;;20.55;;
77055;SDS011;67471;44.918;8.614;2023-02-01T02:01:13;38.90;;;20.23;;
77055;SDS011;67471;44.918;8.614;2023-02-01T02:04:17;34.70;;;19.20;;
77055;SDS011;67471;44.918;8.614;2023-02-01T02:07:23;39.92;;;19.65;;
77055;SDS011;67471;44.918;8.614;2023-02-01T02:13:53;35.38;;;18.20;;
77055;SDS011;67471;44.918;8.614;2023-02-01T02:17:07;40.13;;;20.90;;
77055;SDS011;67471;44.918;8.614;2023-02-01T02:20:38;32.70;;;17.83;;
77055;SDS011;67471;44.918;8.614;2023-02-01T02:27:50;36.40;;;18.92;;
77055;SDS011;67471;44.918;8.614;2023-02-01T02:34:47;39.83;;;20.13;;
77055;SDS011;67471;44.918;8.614;2023-02-01T02:38:16;39.63;;;20.20;;
77055;SDS011;67471;44.918;8.614;2023-02-01T02:45:27;37.00;;;19.45;;
77055;SDS011;67471;44.918;8.614;2023-02-01T02:52:05;33.45;;;17.92;;
77055;SDS011;67471;44.918;8.614;2023-02-01T02:55:35;32.78;;;17.92;;
77055;SDS011;67471;44.918;8.614;2023-02-01T02:58:42;35.78;;;18.95;;
77055;SDS011;67471;44.918;8.614;2023-02-01T03:02:06;32.55;;;17.27;;
77055;SDS011;67471;44.918;8.614;2023-02-01T03:05:33;34.58;;;18.13;;
77055;SDS011;67471;44.918;8.614;2023-02-01T03:08:42;36.80;;;18.30;;
77055;SDS011;67471;44.918;8.614;2023-02-01T03:11:49;33.60;;;19.25;;
77055;SDS011;67471;44.918;8.614;2023-02-01T03:15:31;36.75;;;19.08;;
77055;SDS011;67471;44.918;8.614;2023-02-01T03:25:14;32.42;;;17.40;;
77055;SDS011;67471;44.918;8.614;2023-02-01T03:28:29;33.80;;;18.23;;
77055;SDS011;67471;44.918;8.614;2023-02-01T03:31:35;39.40;;;20.45;;
77055;SDS011;67471;44.918;8.614;2023-02-01T03:34:39;39.58;;;19.42;;
77055;SDS011;67471;44.918;8.614;2023-02-01T03:37:43;35.25;;;19.17;;
77055;SDS011;67471;44.918;8.614;2023-02-01T03:40:48;34.75;;;19.20;;
77055;SDS011;67471;44.918;8.614;2023-02-01T03:47:20;33.75;;;19.98;;
77055;SDS011;67471;44.918;8.614;2023-02-01T03:50:28;37.60;;;20.08;;
77055;SDS011;67471;44.918;8.614;2023-02-01T03:53:33;41.42;;;21.73;;
77055;SDS011;67471;44.918;8.614;2023-02-01T03:56:40;41.90;;;20.33;;
77055;SDS011;67471;44.918;8.614;2023-02-01T03:59:47;40.60;;;22.50;;
77055;SDS011;67471;44.918;8.614;2023-02-01T04:02:52;44.38;;;23.23;;
77055;SDS011;67471;44.918;8.614;2023-02-01T04:05:56;43.75;;;22.55;;
77055;SDS011;67471;44.918;8.614;2023-02-01T04:09:03;46.67;;;22.70;;
77055;SDS011;67471;44.918;8.614;2023-02-01T04:12:07;52.15;;;24.90;;
77055;SDS011;67471;44.918;8.614;2023-02-01T04:15:11;44.58;;;23.13;;
77055;SDS011;67471;44.918;8.614;2023-02-01T04:18:15;41.75;;;22.80;;
77055;SDS011;67471;44.918;8.614;2023-02-01T04:21:18;47.53;;;24.15;;
77055;SDS011;67471;44.918;8.614;2023-02-01T04:24:22;48.78;;;23.92;;
77055;SDS011;67471;44.918;8.614;2023-02-01T04:27:26;39.08;;;22.20;;
77055;SDS011;67471;44.918;8.614;2023-02-01T04:30:30;49.90;;;23.73;;
77055;SDS011;67471;44.918;8.614;2023-02-01T04:33:33;42.65;;;22.65;;
77055;SDS011;67471;44.918;8.614;2023-02-01T04:36:37;42.20;;;23.00;;
77055;SDS011;67471;44.918;8.614;2023-02-01T04:39:41;36.83;;;20.77;;
77055;SDS011;67471;44.918;8.614;2023-02-01T04:42:45;42.67;;;21.20;;
77055;SDS011;67471;44.918;8.614;2023-02-01T04:45:48;38.38;;;20.17;;
77055;SDS011;67471;44.918;8.614;2023-02-01T04:48:53;40.28;;;20.83;;
77055;SDS011;67471;44.918;8.614;2023-02-01T04:51:57;42.03;;;21.30;;
77055;SDS011;67471;44.918;8.614;2023-02-01T04:55:00;42.92;;;21.33;;
77055;SDS011;67471;44.918;8.614;2023-02-01T04:58:05;38.88;;;21.02;;
77055;SDS011;67471;44.918;8.614;2023-02-01T05:01:09;40.75;;;21.33;;
77055;SDS011;67471;44.918;8.614;2023-02-01T05:04:13;43.13;;;23.48;;
77055;SDS011;67471;44.918;8.614;2023-02-01T05:07:17;49.67;;;23.08;;
77055;SDS011;67471;44.918;8.614;2023-02-01T05:10:21;43.97;;;23.38;;
77055;SDS011;67471;44.918;8.614;2023-02-01T05:13:25;46.90;;;23.58;;
77055;SDS011;67471;44.918;8.614;2023-02-01T05:16:47;47.47;;;25.63;;
77055;SDS011;67471;44.918;8.614;2023-02-01T05:19:51;55.50;;;26.00;;
77055;SDS011;67471;44.918;8.614;2023-02-01T05:22:55;50.50;;;26.23;;
77055;SDS011;67471;44.918;8.614;2023-02-01T05:25:59;48.90;;;25.13;;
77055;SDS011;67471;44.918;8.614;2023-02-01T05:29:04;42.22;;;23.02;;
77055;SDS011;67471;44.918;8.614;2023-02-01T05:32:09;50.75;;;26.88;;
77055;SDS011;67471;44.918;8.614;2023-02-01T05:35:13;47.25;;;24.75;;
77055;SDS011;67471;44.918;8.614;2023-02-01T05:38:17;51.40;;;25.00;;
77055;SDS011;67471;44.918;8.614;2023-02-01T05:41:20;47.10;;;23.98;;
77055;SDS011;67471;44.918;8.614;2023-02-01T05:44:24;43.58;;;23.30;;
77055;SDS011;67471;44.918;8.614;2023-02-01T05:47:28;39.45;;;20.75;;
77055;SDS011;67471;44.918;8.614;2023-02-01T05:50:32;46.20;;;22.85;;
77055;SDS011;67471;44.918;8.614;2023-02-01T05:53:45;47.03;;;24.65;;
77055;SDS011;67471;44.918;8.614;2023-02-01T05:56:49;48.75;;;25.33;;
77055;SDS011;67471;44.918;8.614;2023-02-01T05:59:53;48.58;;;24.63;;
77055;SDS011;67471;44.918;8.614;2023-02-01T06:02:56;43.90;;;24.20;;
77055;SDS011;67471;44.918;8.614;2023-02-01T06:06:00;39.55;;;21.63;;
77055;SDS011;67471;44.918;8.614;2023-02-01T06:09:04;42.90;;;23.92;;
77055;SDS011;67471;44.918;8.614;2023-02-01T06:12:08;52.70;;;23.65;;
77055;SDS011;67471;44.918;8.614;2023-02-01T06:15:12;45.40;;;22.33;;
77055;SDS011;67471;44.918;8.614;2023-02-01T06:18:19;45.97;;;24.52;;
77055;SDS011;67471;44.918;8.614;2023-02-01T06:21:23;47.28;;;24.13;;
77055;SDS011;67471;44.918;8.614;2023-02-01T06:24:27;47.88;;;23.80;;
77055;SDS011;67471;44.918;8.614;2023-02-01T06:27:31;48.92;;;24.27;;
77055;SDS011;67471;44.918;8.614;2023-02-01T06:30:35;48.03;;;22.55;;
77055;SDS011;67471;44.918;8.614;2023-02-01T06:33:38;51.72;;;24.48;;
77055;SDS011;67471;44.918;8.614;2023-02-01T06:36:42;44.90;;;22.25;;
77055;SDS011;67471;44.918;8.614;2023-02-01T06:39:46;45.85;;;23.92;;
77055;SDS011;67471;44.918;8.614;2023-02-01T06:42:50;54.13;;;24.10;;
77055;SDS011;67471;44.918;8.614;2023-02-01T06:45:58;45.45;;;24.63;;
77055;SDS011;67471;44.918;8.614;2023-02-01T06:49:03;47.50;;;22.85;;
77055;SDS011;67471;44.918;8.614;2023-02-01T06:52:07;42.78;;;22.70;;
77055;SDS011;67471;44.918;8.614;2023-02-01T06:55:11;52.65;;;23.98;;
77055;SDS011;67471;44.918;8.614;2023-02-01T06:58:14;48.92;;;24.40;;
77055;SDS011;67471;44.918;8.614;2023-02-01T07:01:17;44.28;;;23.83;;
77055;SDS011;67471;44.918;8.614;2023-02-01T07:04:21;43.25;;;24.00;;
77055;SDS011;67471;44.918;8.614;2023-02-01T07:07:25;48.30;;;26.00;;
77055;SDS011;67471;44.918;8.614;2023-02-01T07:10:29;44.95;;;22.10;;
77055;SDS011;67471;44.918;8.614;2023-02-01T07:13:32;46.88;;;23.88;;
77055;SDS011;67471;44.918;8.614;2023-02-01T07:16:37;43.22;;;23.13;;
77055;SDS011;67471;44.918;8.614;2023-02-01T07:19:40;41.92;;;22.83;;
77055;SDS011;67471;44.918;8.614;2023-02-01T07:22:44;45.42;;;23.73;;
77055;SDS011;67471;44.918;8.614;2023-02-01T07:25:48;48.00;;;25.67;;
77055;SDS011;67471;44.918;8.614;2023-02-01T07:28:52;44.28;;;26.02;;
77055;SDS011;67471;44.918;8.614;2023-02-01T07:31:55;40.75;;;24.15;;
77055;SDS011;67471;44.918;8.614;2023-02-01T07:35:00;39.83;;;23.15;;
77055;SDS011;67471;44.918;8.614;2023-02-01T07:38:03;41.05;;;23.55;;
77055;SDS011;67471;44.918;8.614;2023-02-01T07:41:07;42.58;;;25.25;;
77055;SDS011;67471;44.918;8.614;2023-02-01T07:44:12;42.92;;;26.45;;
77055;SDS011;67471;44.918;8.614;2023-02-01T07:47:16;41.05;;;23.17;;
77055;SDS011;67471;44.918;8.614;2023-02-01T07:50:19;42.58;;;23.45;;
77055;SDS011;67471;44.918;8.614;2023-02-01T07:53:23;39.60;;;23.52;;
77055;SDS011;67471;44.918;8.614;2023-02-01T07:56:27;37.72;;;23.08;;
77055;SDS011;67471;44.918;8.614;2023-02-01T07:59:31;42.03;;;25.90;;
77055;SDS011;67471;44.918;8.614;2023-02-01T08:02:35;39.47;;;24.90;;
77055;SDS011;67471;44.918;8.614;2023-02-01T08:05:38;43.95;;;26.75;;
77055;SDS011;67471;44.918;8.614;2023-02-01T08:08:42;38.83;;;24.73;;
77055;SDS011;67471;44.918;8.614;2023-02-01T08:11:48;33.85;;;23.88;;
77055;SDS011;67471;44.918;8.614;2023-02-01T08:14:52;33.60;;;22.80;;
77055;SDS011;67471;44.918;8.614;2023-02-01T08:17:57;34.80;;;23.63;;
77055;SDS011;67471;44.918;8.614;2023-02-01T08:24:08;38.40;;;25.50;;
77055;SDS011;67471;44.918;8.614;2023-02-01T08:27:13;35.40;;;25.23;;
77055;SDS011;67471;44.918;8.614;2023-02-01T08:30:17;32.55;;;23.88;;
77055;SDS011;67471;44.918;8.614;2023-02-01T08:33:20;34.28;;;24.60;;
77055;SDS011;67471;44.918;8.614;2023-02-01T08:36:26;34.95;;;26.15;;
77055;SDS011;67471;44.918;8.614;2023-02-01T08:39:31;32.63;;;23.58;;
77055;SDS011;67471;44.918;8.614;2023-02-01T08:42:35;35.75;;;24.50;;
77055;SDS011;67471;44.918;8.614;2023-02-01T08:46:05;31.30;;;22.52;;
77055;SDS011;67471;44.918;8.614;2023-02-01T08:49:09;32.67;;;23.60;;
77055;SDS011;67471;44.918;8.614;2023-02-01T08:52:13;31.45;;;22.15;;
77055;SDS011;67471;44.918;8.614;2023-02-01T08:55:17;36.33;;;23.40;;
77055;SDS011;67471;44.918;8.614;2023-02-01T08:58:20;31.58;;;23.35;;
77055;SDS011;67471;44.918;8.614;2023-02-01T09:01:25;37.15;;;23.88;;
77055;SDS011;67471;44.918;8.614;2023-02-01T09:04:29;31.25;;;22.73;;
77055;SDS011;67471;44.918;8.614;2023-02-01T09:07:33;33.13;;;24.60;;
77055;SDS011;67471;44.918;8.614;2023-02-01T09:10:37;32.28;;;22.25;;
77055;SDS011;67471;44.918;8.614;2023-02-01T09:13:41;30.70;;;23.63;;
77055;SDS011;67471;44.918;8.614;2023-02-01T09:16:45;32.50;;;23.45;;
77055;SDS011;67471;44.918;8.614;2023-02-01T09:19:49;29.70;;;23.17;;
77055;SDS011;67471;44.918;8.614;2023-02-01T09:22:54;33.05;;;24.63;;
77055;SDS011;67471;44.918;8.614;2023-02-01T09:25:59;33.58;;;24.73;;
77055;SDS011;67471;44.918;8.614;2023-02-01T09:29:04;39.05;;;24.85;;
77055;SDS011;67471;44.918;8.614;2023-02-01T09:32:13;41.17;;;28.08;;
77055;SDS011;67471;44.918;8.614;2023-02-01T09:35:17;38.75;;;28.13;;
77055;SDS011;67471;44.918;8.614;2023-02-01T09:38:20;40.60;;;28.05;;
77055;SDS011;67471;44.918;8.614;2023-02-01T09:48:29;39.13;;;27.65;;
77055;SDS011;67471;44.918;8.614;2023-02-01T09:51:37;38.17;;;26.45;;
77055;SDS011;67471;44.918;8.614;2023-02-01T09:54:51;42.08;;;28.02;;
77055;SDS011;67471;44.918;8.614;2023-02-01T10:01:15;38.30;;;27.27;;
77055;SDS011;67471;44.918;8.614;2023-02-01T10:04:22;36.03;;;25.55;;
77055;SDS011;67471;44.918;8.614;2023-02-01T10:10:55;35.58;;;24.27;;
77055;SDS011;67471;44.918;8.614;2023-02-01T10:30:29;40.13;;;23.17;;
77055;SDS011;67471;44.918;8.614;2023-02-01T10:33:42;39.58;;;24.50;;
77055;SDS011;67471;44.918;8.614;2023-02-01T10:36:56;41.95;;;26.33;;
77055;SDS011;67471;44.918;8.614;2023-02-01T10:40:15;43.63;;;29.35;;
77055;SDS011;67471;44.918;8.614;2023-02-01T10:43:24;45.95;;;26.65;;
77055;SDS011;67471;44.918;8.614;2023-02-01T10:46:29;43.47;;;24.50;;
77055;SDS011;67471;44.918;8.614;2023-02-01T10:49:34;41.13;;;25.10;;
77055;SDS011;67471;44.918;8.614;2023-02-01T10:53:01;38.83;;;22.83;;
77055;SDS011;67471;44.918;8.614;2023-02-01T10:56:10;32.92;;;23.15;;
77055;SDS011;67471;44.918;8.614;2023-02-01T10:59:17;30.85;;;20.63;;
77055;SDS011;67471;44.918;8.614;2023-02-01T11:02:26;36.47;;;20.73;;
77055;SDS011;67471;44.918;8.614;2023-02-01T11:05:43;32.33;;;20.10;;
77055;SDS011;67471;44.918;8.614;2023-02-01T11:08:50;31.33;;;20.40;;
77055;SDS011;67471;44.918;8.614;2023-02-01T11:11:57;30.00;;;18.67;;
77055;SDS011;67471;44.918;8.614;2023-02-01T11:15:20;35.38;;;20.42;;
77055;SDS011;67471;44.918;8.614;2023-02-01T11:18:29;39.70;;;22.63;;
77055;SDS011;67471;44.918;8.614;2023-02-01T11:21:35;33.63;;;21.30;;
77055;SDS011;67471;44.918;8.614;2023-02-01T11:24:38;29.23;;;18.80;;
77055;SDS011;67471;44.918;8.614;2023-02-01T11:27:44;29.58;;;19.00;;
77055;SDS011;67471;44.918;8.614;2023-02-01T11:30:48;28.88;;;17.40;;
77055;SDS011;67471;44.918;8.614;2023-02-01T11:33:52;31.65;;;18.85;;
77055;SDS011;67471;44.918;8.614;2023-02-01T11:37:01;27.48;;;15.50;;
77055;SDS011;67471;44.918;8.614;2023-02-01T11:46:31;34.63;;;19.85;;
77055;SDS011;67471;44.918;8.614;2023-02-01T11:49:36;23.63;;;14.95;;
77055;SDS011;67471;44.918;8.614;2023-02-01T11:56:18;24.73;;;13.13;;
77055;SDS011;67471;44.918;8.614;2023-02-01T11:59:38;30.55;;;18.85;;
77055;SDS011;67471;44.918;8.614;2023-02-01T12:10:03;61.30;;;33.15;;
77055;SDS011;67471;44.918;8.614;2023-02-01T12:36:29;21.13;;;13.70;;
77055;SDS011;67471;44.918;8.614;2023-02-01T12:42:53;26.10;;;15.50;;
77055;SDS011;67471;44.918;8.614;2023-02-01T12:46:03;25.42;;;13.52;;
77055;SDS011;67471;44.918;8.614;2023-02-01T12:52:53;16.55;;;9.90;;
77055;SDS011;67471;44.918;8.614;2023-02-01T12:56:02;18.67;;;10.10;;
77055;SDS011;67471;44.918;8.614;2023-02-01T12:59:16;16.95;;;9.23;;
77055;SDS011;67471;44.918;8.614;2023-02-01T13:02:27;19.30;;;9.02;;
77055;SDS011;67471;44.918;8.614;2023-02-01T13:05:46;19.30;;;9.77;;
77055;SDS011;67471;44.918;8.614;2023-02-01T13:12:17;14.68;;;9.95;;
77055;SDS011;67471;44.918;8.614;2023-02-01T13:15:30;14.13;;;7.05;;
77055;SDS011;67471;44.918;8.614;2023-02-01T13:18:37;14.60;;;8.07;;
77055;SDS011;67471;44.918;8.614;2023-02-01T13:21:44;11.60;;;6.80;;
77055;SDS011;67471;44.918;8.614;2023-02-01T13:28:17;15.70;;;7.15;;
77055;SDS011;67471;44.918;8.614;2023-02-01T13:41:52;9.55;;;4.22;;
77055;SDS011;67471;44.918;8.614;2023-02-01T13:45:03;8.48;;;3.90;;
77055;SDS011;67471;44.918;8.614;2023-02-01T13:48:15;5.55;;;2.88;;
77055;SDS011;67471;44.918;8.614;2023-02-01T13:51:37;6.40;;;2.10;;
77055;SDS011;67471;44.918;8.614;2023-02-01T13:54:45;7.22;;;2.00;;
77055;SDS011;67471;44.918;8.614;2023-02-01T13:57:49;8.63;;;3.08;;
77055;SDS011;67471;44.918;8.614;2023-02-01T14:04:45;5.75;;;2.25;;
77055;SDS011;67471;44.918;8.614;2023-02-01T14:14:45;6.03;;;2.00;;
77055;SDS011;67471;44.918;8.614;2023-02-01T14:17:51;7.75;;;2.17;;
77055;SDS011;67471;44.918;8.614;2023-02-01T14:21:10;6.22;;;1.70;;
77055;SDS011;67471;44.918;8.614;2023-02-01T14:27:34;4.65;;;1.70;;
77055;SDS011;67471;44.918;8.614;2023-02-01T14:30:40;8.23;;;1.75;;
77055;SDS011;67471;44.918;8.614;2023-02-01T14:33:45;7.70;;;2.42;;
77055;SDS011;67471;44.918;8.614;2023-02-01T14:36:55;6.57;;;1.98;;
77055;SDS011;67471;44.918;8.614;2023-02-01T14:43:48;9.13;;;2.17;;
77055;SDS011;67471;44.918;8.614;2023-02-01T14:53:20;5.60;;;1.60;;
77055;SDS011;67471;44.918;8.614;2023-02-01T14:56:29;6.78;;;1.77;;
77055;SDS011;67471;44.918;8.614;2023-02-01T14:59:34;5.55;;;1.95;;
77055;SDS011;67471;44.918;8.614;2023-02-01T15:02:40;5.20;;;1.63;;
77055;SDS011;67471;44.918;8.614;2023-02-01T15:05:52;6.15;;;1.65;;
77055;SDS011;67471;44.918;8.614;2023-02-01T15:09:03;4.80;;;1.75;;
77055;SDS011;67471;44.918;8.614;2023-02-01T15:15:19;4.72;;;1.98;;
77055;SDS011;67471;44.918;8.614;2023-02-01T15:18:25;5.72;;;2.08;;
77055;SDS011;67471;44.918;8.614;2023-02-01T15:21:29;10.45;;;2.55;;
77055;SDS011;67471;44.918;8.614;2023-02-01T15:24:33;5.20;;;2.00;;
77055;SDS011;67471;44.918;8.614;2023-02-01T15:27:37;6.70;;;2.00;;
77055;SDS011;67471;44.918;8.614;2023-02-01T15:30:50;6.72;;;2.47;;
77055;SDS011;67471;44.918;8.614;2023-02-01T15:33:56;8.30;;;2.03;;
77055;SDS011;67471;44.918;8.614;2023-02-01T15:37:04;8.10;;;2.05;;
77055;SDS011;67471;44.918;8.614;2023-02-01T15:43:13;9.68;;;2.80;;
77055;SDS011;67471;44.918;8.614;2023-02-01T15:46:28;11.27;;;2.70;;
77055;SDS011;67471;44.918;8.614;2023-02-01T15:49:39;5.85;;;2.47;;
77055;SDS011;67471;44.918;8.614;2023-02-01T15:52:46;8.68;;;2.78;;
77055;SDS011;67471;44.918;8.614;2023-02-01T15:55:52;9.82;;;2.60;;
77055;SDS011;67471;44.918;8.614;2023-02-01T15:58:59;8.90;;;2.55;;
77055;SDS011;67471;44.918;8.614;2023-02-01T16:02:05;8.02;;;2.40;;
77055;SDS011;67471;44.918;8.614;2023-02-01T16:05:53;11.60;;;3.08;;
77055;SDS011;67471;44.918;8.614;2023-02-01T16:12:03;6.75;;;2.78;;
77055;SDS011;67471;44.918;8.614;2023-02-01T16:15:22;4.85;;;2.22;;
77055;SDS011;67471;44.918;8.614;2023-02-01T16:18:28;8.45;;;2.65;;
77055;SDS011;67471;44.918;8.614;2023-02-01T16:21:32;5.65;;;2.38;;
77055;SDS011;67471;44.918;8.614;2023-02-01T16:24:36;6.15;;;2.60;;
77055;SDS011;67471;44.918;8.614;2023-02-01T16:27:40;11.77;;;4.03;;
77055;SDS011;67471;44.918;8.614;2023-02-01T16:30:44;13.05;;;2.63;;
77055;SDS011;67471;44.918;8.614;2023-02-01T16:33:51;9.95;;;2.45;;
77055;SDS011;67471;44.918;8.614;2023-02-01T16:36:55;8.65;;;2.53;;
77055;SDS011;67471;44.918;8.614;2023-02-01T16:40:01;7.43;;;2.30;;
77055;SDS011;67471;44.918;8.614;2023-02-01T16:43:10;8.15;;;3.47;;
77055;SDS011;67471;44.918;8.614;2023-02-01T16:46:17;13.30;;;2.78;;
77055;SDS011;67471;44.918;8.614;2023-02-01T16:49:27;10.18;;;2.50;;
77055;SDS011;67471;44.918;8.614;2023-02-01T16:52:31;6.30;;;2.10;;
77055;SDS011;67471;44.918;8.614;2023-02-01T16:55:35;6.93;;;2.60;;
77055;SDS011;67471;44.918;8.614;2023-02-01T16:58:39;4.82;;;2.25;;
77055;SDS011;67471;44.918;8.614;2023-02-01T17:01:44;6.28;;;2.53;;
77055;SDS011;67471;44.918;8.614;2023-02-01T17:04:47;8.57;;;2.88;;
77055;SDS011;67471;44.918;8.614;2023-02-01T17:07:51;13.13;;;2.85;;
77055;SDS011;67471;44.918;8.614;2023-02-01T17:10:55;7.60;;;2.75;;
77055;SDS011;67471;44.918;8.614;2023-02-01T17:14:19;11.65;;;2.88;;
77055;SDS011;67471;44.918;8.614;2023-02-01T17:17:30;8.45;;;3.35;;
77055;SDS011;67471;44.918;8.614;2023-02-01T17:20:36;10.98;;;3.17;;
77055;SDS011;67471;44.918;8.614;2023-02-01T17:23:40;6.30;;;2.65;;
77055;SDS011;67471;44.918;8.614;2023-02-01T17:26:44;7.20;;;2.72;;
77055;SDS011;67471;44.918;8.614;2023-02-01T17:29:48;9.00;;;3.20;;
77055;SDS011;67471;44.918;8.614;2023-02-01T17:32:52;7.85;;;3.15;;
77055;SDS011;67471;44.918;8.614;2023-02-01T17:35:57;8.85;;;3.38;;
77055;SDS011;67471;44.918;8.614;2023-02-01T17:39:01;6.95;;;3.25;;
77055;SDS011;67471;44.918;8.614;2023-02-01T17:42:08;16.00;;;4.30;;
77055;SDS011;67471;44.918;8.614;2023-02-01T17:48:38;8.38;;;3.42;;
77055;SDS011;67471;44.918;8.614;2023-02-01T17:51:43;9.98;;;4.55;;
77055;SDS011;67471;44.918;8.614;2023-02-01T17:54:47;8.65;;;3.45;;
77055;SDS011;67471;44.918;8.614;2023-02-01T17:57:52;8.88;;;3.80;;
77055;SDS011;67471;44.918;8.614;2023-02-01T18:00:56;6.10;;;3.55;;
77055;SDS011;67471;44.918;8.614;2023-02-01T18:04:00;11.15;;;4.00;;
77055;SDS011;67471;44.918;8.614;2023-02-01T18:07:04;11.05;;;4.65;;
77055;SDS011;67471;44.918;8.614;2023-02-01T18:10:08;9.13;;;3.90;;
77055;SDS011;67471;44.918;8.614;2023-02-01T18:13:13;11.80;;;3.90;;
77055;SDS011;67471;44.918;8.614;2023-02-01T18:16:27;8.80;;;4.15;;
77055;SDS011;67471;44.918;8.614;2023-02-01T18:19:33;15.07;;;4.50;;
77055;SDS011;67471;44.918;8.614;2023-02-01T18:22:37;17.02;;;5.00;;
77055;SDS011;67471;44.918;8.614;2023-02-01T18:25:41;10.32;;;4.95;;
77055;SDS011;67471;44.918;8.614;2023-02-01T18:28:44;11.77;;;4.80;;
77055;SDS011;67471;44.918;8.614;2023-02-01T18:31:48;10.43;;;4.63;;
77055;SDS011;67471;44.918;8.614;2023-02-01T18:34:53;12.93;;;5.10;;
77055;SDS011;67471;44.918;8.614;2023-02-01T18:37:56;10.68;;;4.10;;
77055;SDS011;67471;44.918;8.614;2023-02-01T18:41:00;8.45;;;4.43;;
77055;SDS011;67471;44.918;8.614;2023-02-01T18:44:11;10.15;;;4.65;;
77055;SDS011;67471;44.918;8.614;2023-02-01T18:47:18;9.20;;;5.18;;
77055;SDS011;67471;44.918;8.614;2023-02-01T18:50:22;9.77;;;4.32;;
77055;SDS011;67471;44.918;8.614;2023-02-01T18:53:25;13.70;;;5.40;;
77055;SDS011;67471;44.918;8.614;2023-02-01T18:56:29;12.10;;;5.25;;
77055;SDS011;67471;44.918;8.614;2023-02-01T18:59:33;15.00;;;5.05;;
77055;SDS011;67471;44.918;8.614;2023-02-01T19:02:37;11.88;;;5.10;;
77055;SDS011;67471;44.918;8.614;2023-02-01T19:05:41;15.05;;;4.90;;
77055;SDS011;67471;44.918;8.614;2023-02-01T19:08:45;11.95;;;5.18;;
77055;SDS011;67471;44.918;8.614;2023-02-01T19:11:49;12.15;;;5.47;;
77055;SDS011;67471;44.918;8.614;2023-02-01T19:14:53;13.15;;;5.97;;
77055;SDS011;67471;44.918;8.614;2023-02-01T19:17:57;10.68;;;5.28;;
77055;SDS011;67471;44.918;8.614;2023-02-01T19:21:06;15.85;;;6.25;;
77055;SDS011;67471;44.918;8.614;2023-02-01T19:24:11;12.40;;;6.10;;
77055;SDS011;67471;44.918;8.614;2023-02-01T19:27:15;15.95;;;7.00;;
77055;SDS011;67471;44.918;8.614;2023-02-01T19:30:19;10.65;;;5.00;;
77055;SDS011;67471;44.918;8.614;2023-02-01T19:33:24;14.85;;;5.82;;
77055;SDS011;67471;44.918;8.614;2023-02-01T19:36:27;13.32;;;5.60;;
77055;SDS011;67471;44.918;8.614;2023-02-01T19:39:31;14.25;;;7.18;;
77055;SDS011;67471;44.918;8.614;2023-02-01T19:42:35;11.35;;;6.22;;
77055;SDS011;67471;44.918;8.614;2023-02-01T19:45:39;13.52;;;7.53;;
77055;SDS011;67471;44.918;8.614;2023-02-01T19:48:42;15.82;;;6.55;;
77055;SDS011;67471;44.918;8.614;2023-02-01T19:51:46;15.93;;;6.50;;
77055;SDS011;67471;44.918;8.614;2023-02-01T19:54:50;14.35;;;6.55;;
77055;SDS011;67471;44.918;8.614;2023-02-01T19:57:54;14.18;;;5.72;;
77055;SDS011;67471;44.918;8.614;2023-02-01T20:00:58;13.48;;;7.03;;
77055;SDS011;67471;44.918;8.614;2023-02-01T20:04:05;16.40;;;7.32;;
77055;SDS011;67471;44.918;8.614;2023-02-01T20:07:09;16.73;;;7.40;;
77055;SDS011;67471;44.918;8.614;2023-02-01T20:10:14;20.10;;;8.73;;
77055;SDS011;67471;44.918;8.614;2023-02-01T20:13:18;13.77;;;7.80;;
77055;SDS011;67471;44.918;8.614;2023-02-01T20:16:22;17.00;;;7.10;;
77055;SDS011;67471;44.918;8.614;2023-02-01T20:19:26;14.45;;;7.70;;
77055;SDS011;67471;44.918;8.614;2023-02-01T20:22:29;12.98;;;6.38;;
77055;SDS011;67471;44.918;8.614;2023-02-01T20:25:34;13.95;;;6.05;;
77055;SDS011;67471;44.918;8.614;2023-02-01T20:28:39;15.82;;;6.88;;
77055;SDS011;67471;44.918;8.614;2023-02-01T20:31:43;19.25;;;6.80;;
77055;SDS011;67471;44.918;8.614;2023-02-01T20:34:47;14.48;;;7.15;;
77055;SDS011;67471;44.918;8.614;2023-02-01T20:37:55;12.65;;;6.47;;
77055;SDS011;67471;44.918;8.614;2023-02-01T20:41:04;14.35;;;8.35;;
77055;SDS011;67471;44.918;8.614;2023-02-01T20:47:14;11.25;;;6.35;;
77055;SDS011;67471;44.918;8.614;2023-02-01T20:50:18;14.63;;;7.40;;
77055;SDS011;67471;44.918;8.614;2023-02-01T20:53:22;18.35;;;10.48;;
77055;SDS011;67471;44.918;8.614;2023-02-01T20:56:26;15.88;;;8.05;;
77055;SDS011;67471;44.918;8.614;2023-02-01T20:59:30;17.13;;;7.60;;
77055;SDS011;67471;44.918;8.614;2023-02-01T21:02:34;16.17;;;8.07;;
77055;SDS011;67471;44.918;8.614;2023-02-01T21:05:37;16.95;;;7.50;;